sensor_id;sensor_type;location;lat;lon;timestamp;P1;durP1;ratioP1;P2;durP2;ratioP2
64938;SDS011;51453;47.738;7.420;2023-04-24T00:01:39;2.10;;;0.77;;
64938;SDS011;51453;47.738;7.420;2023-04-24T00:04:05;0.82;;;0.70;;
64938;SDS011;51453;47.738;7.420;2023-04-24T00:06:32;1.30;;;0.95;;
64938;SDS011;51453;47.738;7.420;2023-04-24T00:09:01;2.03;;;0.40;;
64938;SDS011;51453;47.738;7.420;2023-04-24T00:11:28;3.75;;;0.60;;
64938;SDS011;51453;47.738;7.420;2023-04-24T00:13:54;0.80;;;0.50;;
64938;SDS011;51453;47.738;7.420;2023-04-24T00:16:21;1.38;;;0.50;;
64938;SDS011;51453;47.738;7.420;2023-04-24T00:18:47;2.15;;;0.60;;
64938;SDS011;51453;47.738;7.420;2023-04-24T00:21:13;1.35;;;0.40;;
64938;SDS011;51453;47.738;7.420;2023-04-24T00:23:40;0.77;;;0.38;;
64938;SDS011;51453;47.738;7.420;2023-04-24T00:26:05;0.93;;;0.40;;
64938;SDS011;51453;47.738;7.420;2023-04-24T00:28:31;0.40;;;0.40;;
64938;SDS011;51453;47.738;7.420;2023-04-24T00:30:56;1.83;;;0.63;;
64938;SDS011;51453;47.738;7.420;2023-04-24T00:33:22;0.68;;;0.30;;
64938;SDS011;51453;47.738;7.420;2023-04-24T00:35:48;1.27;;;0.40;;
64938;SDS011;51453;47.738;7.420;2023-04-24T00:38:13;0.95;;;0.32;;
64938;SDS011;51453;47.738;7.420;2023-04-24T00:40:39;2.30;;;0.50;;
64938;SDS011;51453;47.738;7.420;2023-04-24T00:43:04;1.08;;;0.40;;
64938;SDS011;51453;47.738;7.420;2023-04-24T00:45:30;2.05;;;0.43;;
64938;SDS011;51453;47.738;7.420;2023-04-24T00:47:56;1.33;;;0.40;;
64938;SDS011;51453;47.738;7.420;2023-04-24T00:50:23;0.77;;;0.40;;
64938;SDS011;51453;47.738;7.420;2023-04-24T00:52:49;1.55;;;0.50;;
64938;SDS011;51453;47.738;7.420;2023-04-24T00:55:15;2.50;;;0.40;;
64938;SDS011;51453;47.738;7.420;2023-04-24T00:57:41;1.65;;;0.40;;
64938;SDS011;51453;47.738;7.420;2023-04-24T01:00:08;1.17;;;0.30;;
64938;SDS011;51453;47.738;7.420;2023-04-24T01:02:38;2.38;;;0.52;;
64938;SDS011;51453;47.738;7.420;2023-04-24T01:05:06;3.35;;;0.60;;
64938;SDS011;51453;47.738;7.420;2023-04-24T01:07:33;0.40;;;0.30;;
64938;SDS011;51453;47.738;7.420;2023-04-24T01:09:59;1.83;;;0.60;;
64938;SDS011;51453;47.738;7.420;2023-04-24T01:12:25;0.50;;;0.30;;
64938;SDS011;51453;47.738;7.420;2023-04-24T01:14:51;1.55;;;0.35;;
64938;SDS011;51453;47.738;7.420;2023-04-24T01:17:16;2.42;;;0.80;;
64938;SDS011;51453;47.738;7.420;2023-04-24T01:19:42;1.05;;;0.50;;
64938;SDS011;51453;47.738;7.420;2023-04-24T01:22:15;1.45;;;0.30;;
64938;SDS011;51453;47.738;7.420;2023-04-24T01:24:42;1.65;;;0.40;;
64938;SDS011;51453;47.738;7.420;2023-04-24T01:27:08;3.88;;;0.60;;
64938;SDS011;51453;47.738;7.420;2023-04-24T01:29:35;0.95;;;0.40;;
64938;SDS011;51453;47.738;7.420;2023-04-24T01:32:01;0.57;;;0.40;;
64938;SDS011;51453;47.738;7.420;2023-04-24T01:34:28;1.83;;;0.50;;
64938;SDS011;51453;47.738;7.420;2023-04-24T01:36:55;3.55;;;0.50;;
64938;SDS011;51453;47.738;7.420;2023-04-24T01:39:21;8.32;;;0.68;;
64938;SDS011;51453;47.738;7.420;2023-04-24T01:41:50;2.55;;;0.52;;
64938;SDS011;51453;47.738;7.420;2023-04-24T01:44:19;2.78;;;0.50;;
64938;SDS011;51453;47.738;7.420;2023-04-24T01:46:46;3.40;;;0.50;;
64938;SDS011;51453;47.738;7.420;2023-04-24T01:49:12;2.80;;;0.50;;
64938;SDS011;51453;47.738;7.420;2023-04-24T01:51:37;4.55;;;0.80;;
64938;SDS011;51453;47.738;7.420;2023-04-24T01:54:03;2.15;;;0.55;;
64938;SDS011;51453;47.738;7.420;2023-04-24T01:56:30;1.88;;;0.50;;
64938;SDS011;51453;47.738;7.420;2023-04-24T01:58:58;2.00;;;0.43;;
64938;SDS011;51453;47.738;7.420;2023-04-24T02:01:25;6.13;;;0.95;;
64938;SDS011;51453;47.738;7.420;2023-04-24T02:03:51;5.88;;;1.05;;
64938;SDS011;51453;47.738;7.420;2023-04-24T02:06:17;2.65;;;0.50;;
64938;SDS011;51453;47.738;7.420;2023-04-24T02:08:42;2.40;;;0.60;;
64938;SDS011;51453;47.738;7.420;2023-04-24T02:11:08;2.17;;;0.43;;
64938;SDS011;51453;47.738;7.420;2023-04-24T02:13:34;3.50;;;0.80;;
64938;SDS011;51453;47.738;7.420;2023-04-24T02:16:00;1.10;;;0.50;;
64938;SDS011;51453;47.738;7.420;2023-04-24T02:18:26;3.17;;;0.52;;
64938;SDS011;51453;47.738;7.420;2023-04-24T02:20:52;2.17;;;0.70;;
64938;SDS011;51453;47.738;7.420;2023-04-24T02:23:18;3.03;;;1.00;;
64938;SDS011;51453;47.738;7.420;2023-04-24T02:25:44;1.45;;;0.50;;
64938;SDS011;51453;47.738;7.420;2023-04-24T02:28:10;3.33;;;0.50;;
64938;SDS011;51453;47.738;7.420;2023-04-24T02:30:36;1.83;;;0.82;;
64938;SDS011;51453;47.738;7.420;2023-04-24T02:33:01;2.88;;;0.80;;
64938;SDS011;51453;47.738;7.420;2023-04-24T02:35:28;2.78;;;0.68;;
64938;SDS011;51453;47.738;7.420;2023-04-24T02:37:54;5.88;;;0.70;;
64938;SDS011;51453;47.738;7.420;2023-04-24T02:40:19;4.85;;;0.90;;
64938;SDS011;51453;47.738;7.420;2023-04-24T02:42:45;5.90;;;0.70;;
64938;SDS011;51453;47.738;7.420;2023-04-24T02:45:10;3.05;;;0.75;;
64938;SDS011;51453;47.738;7.420;2023-04-24T02:47:36;3.45;;;0.68;;
64938;SDS011;51453;47.738;7.420;2023-04-24T02:50:02;5.07;;;0.90;;
64938;SDS011;51453;47.738;7.420;2023-04-24T02:52:28;3.95;;;0.80;;
64938;SDS011;51453;47.738;7.420;2023-04-24T02:54:54;2.75;;;0.70;;
64938;SDS011;51453;47.738;7.420;2023-04-24T02:57:19;3.47;;;0.82;;
64938;SDS011;51453;47.738;7.420;2023-04-24T02:59:45;5.93;;;1.00;;
64938;SDS011;51453;47.738;7.420;2023-04-24T03:02:11;3.00;;;0.60;;
64938;SDS011;51453;47.738;7.420;2023-04-24T03:04:37;3.33;;;1.00;;
64938;SDS011;51453;47.738;7.420;2023-04-24T03:07:02;1.77;;;0.75;;
64938;SDS011;51453;47.738;7.420;2023-04-24T03:09:29;3.88;;;1.10;;
64938;SDS011;51453;47.738;7.420;2023-04-24T03:11:55;1.05;;;0.50;;
64938;SDS011;51453;47.738;7.420;2023-04-24T03:14:21;5.38;;;0.75;;
64938;SDS011;51453;47.738;7.420;2023-04-24T03:16:47;2.60;;;0.90;;
64938;SDS011;51453;47.738;7.420;2023-04-24T03:19:12;1.48;;;0.73;;
64938;SDS011;51453;47.738;7.420;2023-04-24T03:21:38;1.30;;;0.52;;
64938;SDS011;51453;47.738;7.420;2023-04-24T03:24:06;3.53;;;1.00;;
64938;SDS011;51453;47.738;7.420;2023-04-24T03:26:33;2.00;;;0.80;;
64938;SDS011;51453;47.738;7.420;2023-04-24T03:28:58;1.65;;;0.57;;
64938;SDS011;51453;47.738;7.420;2023-04-24T03:31:24;2.08;;;0.63;;
64938;SDS011;51453;47.738;7.420;2023-04-24T03:33:50;2.75;;;1.05;;
64938;SDS011;51453;47.738;7.420;2023-04-24T03:36:16;4.43;;;0.95;;
64938;SDS011;51453;47.738;7.420;2023-04-24T03:38:42;1.35;;;0.80;;
64938;SDS011;51453;47.738;7.420;2023-04-24T03:41:08;3.10;;;1.10;;
64938;SDS011;51453;47.738;7.420;2023-04-24T03:43:33;1.75;;;0.88;;
64938;SDS011;51453;47.738;7.420;2023-04-24T03:45:59;1.30;;;0.90;;
64938;SDS011;51453;47.738;7.420;2023-04-24T03:48:25;2.60;;;0.88;;
64938;SDS011;51453;47.738;7.420;2023-04-24T03:50:51;1.90;;;0.90;;
64938;SDS011;51453;47.738;7.420;2023-04-24T03:53:16;1.70;;;0.98;;
64938;SDS011;51453;47.738;7.420;2023-04-24T03:55:42;1.58;;;0.70;;
64938;SDS011;51453;47.738;7.420;2023-04-24T03:58:08;3.10;;;0.75;;
64938;SDS011;51453;47.738;7.420;2023-04-24T04:00:33;0.88;;;0.88;;
64938;SDS011;51453;47.738;7.420;2023-04-24T04:02:59;3.20;;;0.90;;
64938;SDS011;51453;47.738;7.420;2023-04-24T04:05:25;1.80;;;1.17;;
64938;SDS011;51453;47.738;7.420;2023-04-24T04:07:51;2.83;;;1.33;;
64938;SDS011;51453;47.738;7.420;2023-04-24T04:10:16;2.80;;;1.20;;
64938;SDS011;51453;47.738;7.420;2023-04-24T04:12:42;2.72;;;1.30;;
64938;SDS011;51453;47.738;7.420;2023-04-24T04:15:08;7.45;;;2.17;;
64938;SDS011;51453;47.738;7.420;2023-04-24T04:17:34;3.67;;;1.40;;
64938;SDS011;51453;47.738;7.420;2023-04-24T04:20:00;3.40;;;1.58;;
64938;SDS011;51453;47.738;7.420;2023-04-24T04:22:26;3.95;;;1.40;;
64938;SDS011;51453;47.738;7.420;2023-04-24T04:24:51;2.20;;;1.55;;
64938;SDS011;51453;47.738;7.420;2023-04-24T04:27:17;16.73;;;1.80;;
64938;SDS011;51453;47.738;7.420;2023-04-24T04:29:43;2.10;;;1.60;;
64938;SDS011;51453;47.738;7.420;2023-04-24T04:32:09;6.38;;;1.77;;
64938;SDS011;51453;47.738;7.420;2023-04-24T04:34:35;5.18;;;1.70;;
64938;SDS011;51453;47.738;7.420;2023-04-24T04:37:02;4.53;;;1.75;;
64938;SDS011;51453;47.738;7.420;2023-04-24T04:39:28;2.58;;;1.77;;
64938;SDS011;51453;47.738;7.420;2023-04-24T04:41:55;4.45;;;1.88;;
64938;SDS011;51453;47.738;7.420;2023-04-24T04:44:21;4.43;;;2.08;;
64938;SDS011;51453;47.738;7.420;2023-04-24T04:46:47;3.47;;;1.85;;
64938;SDS011;51453;47.738;7.420;2023-04-24T04:49:12;3.33;;;2.00;;
64938;SDS011;51453;47.738;7.420;2023-04-24T04:51:41;5.00;;;2.05;;
64938;SDS011;51453;47.738;7.420;2023-04-24T04:54:07;3.97;;;1.75;;
64938;SDS011;51453;47.738;7.420;2023-04-24T04:56:33;5.60;;;2.40;;
64938;SDS011;51453;47.738;7.420;2023-04-24T04:58:58;4.55;;;2.22;;
64938;SDS011;51453;47.738;7.420;2023-04-24T05:01:24;2.75;;;1.85;;
64938;SDS011;51453;47.738;7.420;2023-04-24T05:03:52;5.07;;;2.03;;
64938;SDS011;51453;47.738;7.420;2023-04-24T05:06:18;4.78;;;2.20;;
64938;SDS011;51453;47.738;7.420;2023-04-24T05:08:43;5.90;;;2.30;;
64938;SDS011;51453;47.738;7.420;2023-04-24T05:11:09;4.13;;;2.38;;
64938;SDS011;51453;47.738;7.420;2023-04-24T05:13:35;3.45;;;2.65;;
64938;SDS011;51453;47.738;7.420;2023-04-24T05:16:00;3.45;;;2.30;;
64938;SDS011;51453;47.738;7.420;2023-04-24T05:18:26;6.88;;;2.28;;
64938;SDS011;51453;47.738;7.420;2023-04-24T05:20:52;3.28;;;2.50;;
64938;SDS011;51453;47.738;7.420;2023-04-24T05:23:17;4.93;;;2.70;;
64938;SDS011;51453;47.738;7.420;2023-04-24T05:25:43;6.22;;;2.33;;
64938;SDS011;51453;47.738;7.420;2023-04-24T05:28:09;4.15;;;2.47;;
64938;SDS011;51453;47.738;7.420;2023-04-24T05:30:35;7.20;;;2.22;;
64938;SDS011;51453;47.738;7.420;2023-04-24T05:33:00;4.13;;;2.75;;
64938;SDS011;51453;47.738;7.420;2023-04-24T05:35:26;3.03;;;2.65;;
64938;SDS011;51453;47.738;7.420;2023-04-24T05:37:51;3.40;;;2.45;;
64938;SDS011;51453;47.738;7.420;2023-04-24T05:40:17;3.70;;;2.50;;
64938;SDS011;51453;47.738;7.420;2023-04-24T05:42:43;5.47;;;2.45;;
64938;SDS011;51453;47.738;7.420;2023-04-24T05:45:08;4.22;;;2.65;;
64938;SDS011;51453;47.738;7.420;2023-04-24T05:50:05;3.58;;;2.47;;
64938;SDS011;51453;47.738;7.420;2023-04-24T05:52:31;5.28;;;2.47;;
64938;SDS011;51453;47.738;7.420;2023-04-24T05:54:56;3.70;;;3.08;;
64938;SDS011;51453;47.738;7.420;2023-04-24T05:57:22;3.70;;;2.60;;
64938;SDS011;51453;47.738;7.420;2023-04-24T05:59:48;6.03;;;2.55;;
64938;SDS011;51453;47.738;7.420;2023-04-24T06:02:13;3.97;;;2.67;;
64938;SDS011;51453;47.738;7.420;2023-04-24T06:04:39;3.22;;;2.00;;
64938;SDS011;51453;47.738;7.420;2023-04-24T06:07:04;3.30;;;1.95;;
64938;SDS011;51453;47.738;7.420;2023-04-24T06:09:31;2.28;;;1.88;;
64938;SDS011;51453;47.738;7.420;2023-04-24T06:11:56;3.78;;;1.45;;
64938;SDS011;51453;47.738;7.420;2023-04-24T06:14:22;1.67;;;1.58;;
64938;SDS011;51453;47.738;7.420;2023-04-24T06:16:48;3.67;;;1.85;;
64938;SDS011;51453;47.738;7.420;2023-04-24T06:19:14;4.20;;;1.92;;
64938;SDS011;51453;47.738;7.420;2023-04-24T06:21:39;3.60;;;1.77;;
64938;SDS011;51453;47.738;7.420;2023-04-24T06:24:05;3.67;;;1.80;;
64938;SDS011;51453;47.738;7.420;2023-04-24T06:26:30;4.63;;;1.83;;
64938;SDS011;51453;47.738;7.420;2023-04-24T06:28:56;2.05;;;1.85;;
64938;SDS011;51453;47.738;7.420;2023-04-24T06:31:24;2.17;;;1.83;;
64938;SDS011;51453;47.738;7.420;2023-04-24T06:33:49;5.43;;;2.22;;
64938;SDS011;51453;47.738;7.420;2023-04-24T06:36:15;8.23;;;2.30;;
64938;SDS011;51453;47.738;7.420;2023-04-24T06:38:41;3.33;;;2.30;;
64938;SDS011;51453;47.738;7.420;2023-04-24T06:41:07;5.97;;;1.83;;
64938;SDS011;51453;47.738;7.420;2023-04-24T06:43:33;2.88;;;1.88;;
64938;SDS011;51453;47.738;7.420;2023-04-24T06:45:59;2.38;;;1.90;;
64938;SDS011;51453;47.738;7.420;2023-04-24T06:48:25;3.45;;;1.98;;
64938;SDS011;51453;47.738;7.420;2023-04-24T06:50:51;4.55;;;2.25;;
64938;SDS011;51453;47.738;7.420;2023-04-24T06:53:17;8.30;;;2.25;;
64938;SDS011;51453;47.738;7.420;2023-04-24T06:55:42;5.15;;;2.45;;
64938;SDS011;51453;47.738;7.420;2023-04-24T06:58:10;3.95;;;2.47;;
64938;SDS011;51453;47.738;7.420;2023-04-24T07:00:36;4.00;;;2.00;;
64938;SDS011;51453;47.738;7.420;2023-04-24T07:03:02;4.78;;;1.80;;
64938;SDS011;51453;47.738;7.420;2023-04-24T07:05:30;5.75;;;2.33;;
64938;SDS011;51453;47.738;7.420;2023-04-24T07:07:56;4.40;;;2.17;;
64938;SDS011;51453;47.738;7.420;2023-04-24T07:10:23;3.63;;;2.25;;
64938;SDS011;51453;47.738;7.420;2023-04-24T07:12:49;8.70;;;2.30;;
64938;SDS011;51453;47.738;7.420;2023-04-24T07:15:15;5.07;;;2.10;;
64938;SDS011;51453;47.738;7.420;2023-04-24T07:17:41;3.40;;;2.03;;
64938;SDS011;51453;47.738;7.420;2023-04-24T07:20:10;3.45;;;2.20;;
64938;SDS011;51453;47.738;7.420;2023-04-24T07:22:37;7.50;;;2.05;;
64938;SDS011;51453;47.738;7.420;2023-04-24T07:25:03;5.05;;;1.70;;
64938;SDS011;51453;47.738;7.420;2023-04-24T07:27:30;2.70;;;1.67;;
64938;SDS011;51453;47.738;7.420;2023-04-24T07:29:55;3.47;;;1.95;;
64938;SDS011;51453;47.738;7.420;2023-04-24T07:32:21;4.80;;;1.70;;
64938;SDS011;51453;47.738;7.420;2023-04-24T07:34:46;4.20;;;1.55;;
64938;SDS011;51453;47.738;7.420;2023-04-24T07:37:12;4.53;;;1.85;;
64938;SDS011;51453;47.738;7.420;2023-04-24T07:39:38;3.60;;;1.88;;
64938;SDS011;51453;47.738;7.420;2023-04-24T07:42:03;3.70;;;1.77;;
64938;SDS011;51453;47.738;7.420;2023-04-24T07:44:29;2.58;;;1.60;;
64938;SDS011;51453;47.738;7.420;2023-04-24T07:46:55;2.28;;;1.40;;
64938;SDS011;51453;47.738;7.420;2023-04-24T07:49:21;6.75;;;1.80;;
64938;SDS011;51453;47.738;7.420;2023-04-24T07:51:47;4.43;;;1.70;;
64938;SDS011;51453;47.738;7.420;2023-04-24T07:54:12;5.05;;;1.65;;
64938;SDS011;51453;47.738;7.420;2023-04-24T07:56:38;3.92;;;1.55;;
64938;SDS011;51453;47.738;7.420;2023-04-24T07:59:04;7.53;;;1.67;;
64938;SDS011;51453;47.738;7.420;2023-04-24T08:01:30;6.32;;;1.45;;
64938;SDS011;51453;47.738;7.420;2023-04-24T08:03:56;3.25;;;1.45;;
64938;SDS011;51453;47.738;7.420;2023-04-24T08:06:21;4.03;;;1.48;;
64938;SDS011;51453;47.738;7.420;2023-04-24T08:08:47;2.95;;;1.35;;
64938;SDS011;51453;47.738;7.420;2023-04-24T08:11:13;3.70;;;1.58;;
64938;SDS011;51453;47.738;7.420;2023-04-24T08:13:39;4.00;;;1.60;;
64938;SDS011;51453;47.738;7.420;2023-04-24T08:16:04;4.10;;;1.60;;
64938;SDS011;51453;47.738;7.420;2023-04-24T08:18:30;3.05;;;1.52;;
64938;SDS011;51453;47.738;7.420;2023-04-24T08:20:56;7.10;;;1.63;;
64938;SDS011;51453;47.738;7.420;2023-04-24T08:23:26;4.28;;;1.20;;
64938;SDS011;51453;47.738;7.420;2023-04-24T08:25:52;5.43;;;1.63;;
64938;SDS011;51453;47.738;7.420;2023-04-24T08:28:17;3.20;;;1.30;;
64938;SDS011;51453;47.738;7.420;2023-04-24T08:30:45;3.33;;;1.27;;
64938;SDS011;51453;47.738;7.420;2023-04-24T08:33:12;3.85;;;1.73;;
64938;SDS011;51453;47.738;7.420;2023-04-24T08:35:37;3.45;;;1.30;;
64938;SDS011;51453;47.738;7.420;2023-04-24T08:38:03;5.30;;;1.48;;
64938;SDS011;51453;47.738;7.420;2023-04-24T08:40:29;2.65;;;1.13;;
64938;SDS011;51453;47.738;7.420;2023-04-24T08:42:59;1.73;;;1.27;;
64938;SDS011;51453;47.738;7.420;2023-04-24T08:45:25;3.35;;;1.30;;
64938;SDS011;51453;47.738;7.420;2023-04-24T08:47:54;6.43;;;1.52;;
64938;SDS011;51453;47.738;7.420;2023-04-24T08:50:21;2.88;;;1.40;;
64938;SDS011;51453;47.738;7.420;2023-04-24T08:52:47;8.65;;;1.50;;
64938;SDS011;51453;47.738;7.420;2023-04-24T08:55:15;5.00;;;1.27;;
64938;SDS011;51453;47.738;7.420;2023-04-24T08:57:43;3.35;;;1.20;;
64938;SDS011;51453;47.738;7.420;2023-04-24T09:00:10;3.70;;;1.33;;
64938;SDS011;51453;47.738;7.420;2023-04-24T09:02:39;3.75;;;1.30;;
64938;SDS011;51453;47.738;7.420;2023-04-24T09:05:08;2.58;;;1.20;;
64938;SDS011;51453;47.738;7.420;2023-04-24T09:07:35;4.90;;;1.20;;
64938;SDS011;51453;47.738;7.420;2023-04-24T09:10:04;2.50;;;1.10;;
64938;SDS011;51453;47.738;7.420;2023-04-24T09:12:31;4.35;;;1.40;;
64938;SDS011;51453;47.738;7.420;2023-04-24T09:14:58;5.88;;;1.50;;
64938;SDS011;51453;47.738;7.420;2023-04-24T09:17:25;4.70;;;1.25;;
64938;SDS011;51453;47.738;7.420;2023-04-24T09:19:53;2.47;;;1.13;;
64938;SDS011;51453;47.738;7.420;2023-04-24T09:22:18;3.58;;;1.15;;
64938;SDS011;51453;47.738;7.420;2023-04-24T09:24:46;4.35;;;1.30;;
64938;SDS011;51453;47.738;7.420;2023-04-24T09:27:12;2.22;;;0.90;;
64938;SDS011;51453;47.738;7.420;2023-04-24T09:29:39;1.77;;;1.05;;
64938;SDS011;51453;47.738;7.420;2023-04-24T09:32:22;2.03;;;1.00;;
64938;SDS011;51453;47.738;7.420;2023-04-24T09:34:50;3.00;;;1.08;;
64938;SDS011;51453;47.738;7.420;2023-04-24T09:37:45;3.53;;;1.52;;
64938;SDS011;51453;47.738;7.420;2023-04-24T09:42:39;1.73;;;0.90;;
64938;SDS011;51453;47.738;7.420;2023-04-24T09:45:08;5.05;;;1.08;;
64938;SDS011;51453;47.738;7.420;2023-04-24T09:47:40;2.88;;;0.90;;
64938;SDS011;51453;47.738;7.420;2023-04-24T09:50:13;1.60;;;1.00;;
64938;SDS011;51453;47.738;7.420;2023-04-24T09:52:41;3.92;;;1.23;;
64938;SDS011;51453;47.738;7.420;2023-04-24T09:55:11;4.63;;;1.00;;
64938;SDS011;51453;47.738;7.420;2023-04-24T10:00:31;3.63;;;1.15;;
64938;SDS011;51453;47.738;7.420;2023-04-24T10:02:58;2.67;;;1.10;;
64938;SDS011;51453;47.738;7.420;2023-04-24T10:05:29;2.85;;;0.85;;
64938;SDS011;51453;47.738;7.420;2023-04-24T10:08:06;4.53;;;0.90;;
64938;SDS011;51453;47.738;7.420;2023-04-24T10:10:34;4.63;;;1.00;;
64938;SDS011;51453;47.738;7.420;2023-04-24T10:13:03;4.75;;;1.02;;
64938;SDS011;51453;47.738;7.420;2023-04-24T10:15:29;3.17;;;1.08;;
64938;SDS011;51453;47.738;7.420;2023-04-24T10:17:55;1.75;;;1.15;;
64938;SDS011;51453;47.738;7.420;2023-04-24T10:20:25;2.67;;;1.00;;
64938;SDS011;51453;47.738;7.420;2023-04-24T10:22:54;3.20;;;1.13;;
64938;SDS011;51453;47.738;7.420;2023-04-24T10:25:20;6.45;;;1.50;;
64938;SDS011;51453;47.738;7.420;2023-04-24T10:27:48;3.35;;;1.20;;
64938;SDS011;51453;47.738;7.420;2023-04-24T10:30:15;4.75;;;0.90;;
64938;SDS011;51453;47.738;7.420;2023-04-24T10:32:42;8.27;;;1.60;;
64938;SDS011;51453;47.738;7.420;2023-04-24T10:35:08;3.72;;;1.08;;
64938;SDS011;51453;47.738;7.420;2023-04-24T10:37:35;3.10;;;0.85;;
64938;SDS011;51453;47.738;7.420;2023-04-24T10:40:04;2.25;;;0.93;;
64938;SDS011;51453;47.738;7.420;2023-04-24T10:42:32;3.90;;;1.00;;
64938;SDS011;51453;47.738;7.420;2023-04-24T10:44:58;1.55;;;0.80;;
64938;SDS011;51453;47.738;7.420;2023-04-24T10:47:26;4.25;;;0.90;;
64938;SDS011;51453;47.738;7.420;2023-04-24T10:49:52;1.80;;;0.82;;
64938;SDS011;51453;47.738;7.420;2023-04-24T10:52:18;2.47;;;1.00;;
64938;SDS011;51453;47.738;7.420;2023-04-24T10:54:45;1.55;;;0.88;;
64938;SDS011;51453;47.738;7.420;2023-04-24T11:02:40;1.77;;;0.73;;
64938;SDS011;51453;47.738;7.420;2023-04-24T11:05:13;4.03;;;0.90;;
64938;SDS011;51453;47.738;7.420;2023-04-24T11:10:45;4.00;;;1.13;;
64938;SDS011;51453;47.738;7.420;2023-04-24T11:13:15;1.60;;;0.88;;
64938;SDS011;51453;47.738;7.420;2023-04-24T11:15:42;5.28;;;1.35;;
64938;SDS011;51453;47.738;7.420;2023-04-24T11:18:12;2.15;;;1.02;;
64938;SDS011;51453;47.738;7.420;2023-04-24T11:20:44;3.67;;;1.23;;
64938;SDS011;51453;47.738;7.420;2023-04-24T11:23:12;5.10;;;1.20;;
64938;SDS011;51453;47.738;7.420;2023-04-24T11:25:38;2.58;;;0.95;;
64938;SDS011;51453;47.738;7.420;2023-04-24T11:28:04;1.67;;;0.90;;
64938;SDS011;51453;47.738;7.420;2023-04-24T11:30:31;2.05;;;1.08;;
64938;SDS011;51453;47.738;7.420;2023-04-24T11:33:02;2.70;;;1.10;;
64938;SDS011;51453;47.738;7.420;2023-04-24T11:35:29;1.52;;;0.90;;
64938;SDS011;51453;47.738;7.420;2023-04-24T11:37:55;1.77;;;1.00;;
64938;SDS011;51453;47.738;7.420;2023-04-24T11:40:21;2.40;;;1.00;;
64938;SDS011;51453;47.738;7.420;2023-04-24T11:42:49;2.38;;;1.15;;
64938;SDS011;51453;47.738;7.420;2023-04-24T11:45:21;2.67;;;1.13;;
64938;SDS011;51453;47.738;7.420;2023-04-24T11:47:49;1.00;;;0.80;;
64938;SDS011;51453;47.738;7.420;2023-04-24T11:50:16;6.22;;;1.77;;
64938;SDS011;51453;47.738;7.420;2023-04-24T11:52:44;4.35;;;1.30;;
64938;SDS011;51453;47.738;7.420;2023-04-24T11:57:40;3.03;;;1.55;;
64938;SDS011;51453;47.738;7.420;2023-04-24T12:00:14;2.10;;;1.35;;
64938;SDS011;51453;47.738;7.420;2023-04-24T12:03:09;4.13;;;1.70;;
64938;SDS011;51453;47.738;7.420;2023-04-24T12:05:36;2.88;;;1.65;;
64938;SDS011;51453;47.738;7.420;2023-04-24T12:08:03;2.08;;;1.20;;
64938;SDS011;51453;47.738;7.420;2023-04-24T12:10:30;2.17;;;1.17;;
64938;SDS011;51453;47.738;7.420;2023-04-24T12:12:57;3.17;;;1.42;;
64938;SDS011;51453;47.738;7.420;2023-04-24T12:15:24;3.67;;;1.30;;
64938;SDS011;51453;47.738;7.420;2023-04-24T12:17:50;2.92;;;1.42;;
64938;SDS011;51453;47.738;7.420;2023-04-24T12:20:19;3.22;;;1.50;;
64938;SDS011;51453;47.738;7.420;2023-04-24T12:22:50;5.88;;;1.63;;
64938;SDS011;51453;47.738;7.420;2023-04-24T12:25:19;5.32;;;1.63;;
64938;SDS011;51453;47.738;7.420;2023-04-24T12:27:46;3.50;;;1.50;;
64938;SDS011;51453;47.738;7.420;2023-04-24T12:30:17;3.20;;;1.67;;
64938;SDS011;51453;47.738;7.420;2023-04-24T12:32:44;2.33;;;1.30;;
64938;SDS011;51453;47.738;7.420;2023-04-24T12:35:11;2.63;;;1.13;;
64938;SDS011;51453;47.738;7.420;2023-04-24T12:37:37;6.28;;;1.95;;
64938;SDS011;51453;47.738;7.420;2023-04-24T12:40:08;4.57;;;1.60;;
64938;SDS011;51453;47.738;7.420;2023-04-24T12:42:35;4.22;;;1.48;;
64938;SDS011;51453;47.738;7.420;2023-04-24T12:45:07;6.78;;;1.70;;
64938;SDS011;51453;47.738;7.420;2023-04-24T12:47:33;3.67;;;1.70;;
64938;SDS011;51453;47.738;7.420;2023-04-24T12:50:00;2.70;;;1.20;;
64938;SDS011;51453;47.738;7.420;2023-04-24T12:52:26;2.85;;;1.25;;
64938;SDS011;51453;47.738;7.420;2023-04-24T12:54:53;2.63;;;1.00;;
64938;SDS011;51453;47.738;7.420;2023-04-24T12:57:21;2.95;;;1.00;;
64938;SDS011;51453;47.738;7.420;2023-04-24T12:59:47;2.42;;;1.10;;
64938;SDS011;51453;47.738;7.420;2023-04-24T13:02:13;2.20;;;1.00;;
64938;SDS011;51453;47.738;7.420;2023-04-24T13:04:42;2.15;;;1.10;;
64938;SDS011;51453;47.738;7.420;2023-04-24T13:07:13;1.98;;;0.82;;
64938;SDS011;51453;47.738;7.420;2023-04-24T13:09:40;2.35;;;1.08;;
64938;SDS011;51453;47.738;7.420;2023-04-24T13:12:07;5.15;;;1.10;;
64938;SDS011;51453;47.738;7.420;2023-04-24T13:14:34;2.25;;;1.15;;
64938;SDS011;51453;47.738;7.420;2023-04-24T13:17:00;1.65;;;1.00;;
64938;SDS011;51453;47.738;7.420;2023-04-24T13:19:26;3.70;;;1.30;;
64938;SDS011;51453;47.738;7.420;2023-04-24T13:21:53;4.15;;;1.10;;
64938;SDS011;51453;47.738;7.420;2023-04-24T13:24:20;4.65;;;1.52;;
64938;SDS011;51453;47.738;7.420;2023-04-24T13:26:49;2.50;;;1.23;;
64938;SDS011;51453;47.738;7.420;2023-04-24T13:29:16;1.50;;;1.17;;
64938;SDS011;51453;47.738;7.420;2023-04-24T13:31:42;3.25;;;1.20;;
64938;SDS011;51453;47.738;7.420;2023-04-24T13:34:07;8.10;;;1.23;;
64938;SDS011;51453;47.738;7.420;2023-04-24T13:36:33;1.92;;;1.10;;
64938;SDS011;51453;47.738;7.420;2023-04-24T13:38:59;4.10;;;1.30;;
64938;SDS011;51453;47.738;7.420;2023-04-24T13:41:24;3.78;;;1.10;;
64938;SDS011;51453;47.738;7.420;2023-04-24T13:43:50;1.58;;;1.20;;
64938;SDS011;51453;47.738;7.420;2023-04-24T13:46:16;2.28;;;1.15;;
64938;SDS011;51453;47.738;7.420;2023-04-24T13:48:42;1.38;;;1.15;;
64938;SDS011;51453;47.738;7.420;2023-04-24T13:51:07;2.00;;;1.33;;
64938;SDS011;51453;47.738;7.420;2023-04-24T13:53:33;1.52;;;1.42;;
64938;SDS011;51453;47.738;7.420;2023-04-24T13:56:03;1.92;;;1.20;;
64938;SDS011;51453;47.738;7.420;2023-04-24T13:58:28;2.08;;;1.05;;
64938;SDS011;51453;47.738;7.420;2023-04-24T14:00:54;3.70;;;1.55;;
64938;SDS011;51453;47.738;7.420;2023-04-24T14:03:20;2.90;;;1.42;;
64938;SDS011;51453;47.738;7.420;2023-04-24T14:05:46;1.52;;;1.23;;
64938;SDS011;51453;47.738;7.420;2023-04-24T14:08:11;13.68;;;1.80;;
64938;SDS011;51453;47.738;7.420;2023-04-24T14:10:37;2.08;;;1.13;;
64938;SDS011;51453;47.738;7.420;2023-04-24T14:13:03;2.22;;;1.38;;
64938;SDS011;51453;47.738;7.420;2023-04-24T14:15:28;1.60;;;1.25;;
64938;SDS011;51453;47.738;7.420;2023-04-24T14:17:54;2.13;;;1.20;;
64938;SDS011;51453;47.738;7.420;2023-04-24T14:20:20;1.75;;;1.30;;
64938;SDS011;51453;47.738;7.420;2023-04-24T14:22:46;3.60;;;1.60;;
64938;SDS011;51453;47.738;7.420;2023-04-24T14:25:11;3.50;;;1.60;;
64938;SDS011;51453;47.738;7.420;2023-04-24T14:27:37;4.07;;;1.70;;
64938;SDS011;51453;47.738;7.420;2023-04-24T14:30:03;2.72;;;1.55;;
64938;SDS011;51453;47.738;7.420;2023-04-24T14:32:29;2.38;;;1.40;;
64938;SDS011;51453;47.738;7.420;2023-04-24T14:34:55;2.38;;;1.38;;
64938;SDS011;51453;47.738;7.420;2023-04-24T14:37:20;3.53;;;1.30;;
64938;SDS011;51453;47.738;7.420;2023-04-24T14:39:46;3.08;;;1.60;;
64938;SDS011;51453;47.738;7.420;2023-04-24T14:42:11;3.45;;;1.40;;
64938;SDS011;51453;47.738;7.420;2023-04-24T14:44:37;3.55;;;1.60;;
64938;SDS011;51453;47.738;7.420;2023-04-24T14:47:03;2.20;;;1.42;;
64938;SDS011;51453;47.738;7.420;2023-04-24T14:49:28;3.47;;;1.80;;
64938;SDS011;51453;47.738;7.420;2023-04-24T14:51:55;5.30;;;1.50;;
64938;SDS011;51453;47.738;7.420;2023-04-24T14:54:21;3.88;;;1.75;;
64938;SDS011;51453;47.738;7.420;2023-04-24T14:56:48;4.35;;;1.60;;
64938;SDS011;51453;47.738;7.420;2023-04-24T14:59:14;3.58;;;1.77;;
64938;SDS011;51453;47.738;7.420;2023-04-24T15:01:40;3.28;;;1.65;;
64938;SDS011;51453;47.738;7.420;2023-04-24T15:04:05;2.15;;;1.65;;